Time;durP1;ratioP1;P1;durP2;ratioP2;P2;SDS_P1;SDS_P2;PMS_P1;PMS_P2;Temp;Humidity;BMP_temperature;BMP_pressure;BME280_temperature;BME280_humidity;BME280_pressure;Samples;Min_cycle;Max_cycle;Signal;HPM_P1;HPM_P2
2022/03/15 00:00:48;;;;;;;23.00;17.60;;;10.00;69.20;;;;;;11024294;32;20022;-71
2022/03/15 00:06:50;;;;;;;23.50;16.58;;;10.10;69.20;;;;;;11024263;32;20025;-71
2022/03/15 00:12:56;;;;;;;28.90;23.15;;;9.90;69.20;;;;;;11023891;32;20057;-71
2022/03/15 00:18:59;;;;;;;21.60;16.48;;;9.90;69.50;;;;;;11023524;32;20041;-71
2022/03/15 00:25:02;;;;;;;21.02;17.40;;;9.90;69.30;;;;;;11023691;32;20030;-71
2022/03/15 00:31:04;;;;;;;30.12;24.37;;;9.80;69.30;;;;;;11023190;32;20041;-71
2022/03/15 00:37:06;;;;;;;31.70;24.85;;;9.80;69.30;;;;;;11008073;32;20031;-71
2022/03/15 00:43:11;;;;;;;25.35;19.25;;;9.90;69.60;;;;;;11022914;32;20037;-70
2022/03/15 00:49:13;;;;;;;29.10;19.87;;;9.90;69.40;;;;;;11008601;32;20049;-73
2022/03/15 00:55:15;;;;;;;24.42;19.05;;;9.70;69.50;;;;;;11022531;32;20061;-71
2022/03/15 01:01:18;;;;;;;39.08;29.50;;;9.60;69.60;;;;;;11021824;32;20053;-70
2022/03/15 01:07:20;;;;;;;26.12;22.60;;;9.60;70.00;;;;;;11022118;32;20011;-70
2022/03/15 01:13:22;;;;;;;25.33;21.15;;;9.60;69.70;;;;;;11021792;32;20030;-70
2022/03/15 01:19:25;;;;;;;31.73;25.48;;;9.40;70.10;;;;;;11017232;32;20057;-70
2022/03/15 01:25:27;;;;;;;26.60;20.40;;;9.40;70.20;;;;;;11021469;32;20030;-70
2022/03/15 01:31:29;;;;;;;31.23;22.95;;;9.30;70.20;;;;;;11021349;32;20358;-71
2022/03/15 01:37:31;;;;;;;29.40;22.37;;;9.20;70.50;;;;;;11016485;32;20053;-70
2022/03/15 01:43:41;;;;;;;34.33;29.85;;;9.20;70.50;;;;;;11017707;32;20068;-71
2022/03/15 01:49:44;;;;;;;29.40;25.00;;;9.30;70.40;;;;;;11020585;32;20026;-71
2022/03/15 01:55:46;;;;;;;27.85;21.37;;;9.30;70.40;;;;;;11020259;32;20014;-70
2022/03/15 02:01:48;;;;;;;23.65;18.10;;;9.20;70.50;;;;;;11019354;32;20044;-71
2022/03/15 02:07:51;;;;;;;23.42;17.15;;;9.10;70.30;;;;;;11019933;32;20176;-70
2022/03/15 02:13:57;;;;;;;22.45;17.65;;;9.10;70.30;;;;;;11019796;32;20053;-71
2022/03/15 02:20:04;;;;;;;25.62;18.65;;;8.90;70.40;;;;;;11014918;32;20084;-70
2022/03/15 02:26:06;;;;;;;25.00;19.52;;;8.80;70.70;;;;;;11019085;32;20041;-70
2022/03/15 02:32:09;;;;;;;24.05;19.20;;;8.80;70.80;;;;;;11001096;32;20475;-70
2022/03/15 02:38:11;;;;;;;21.95;18.00;;;8.90;70.80;;;;;;11016160;32;20048;-70
2022/03/15 02:44:13;;;;;;;34.92;27.10;;;8.90;70.70;;;;;;11018578;32;20026;-70
2022/03/15 02:50:16;;;;;;;25.75;19.90;;;8.90;70.70;;;;;;11018444;32;20034;-70
2022/03/15 02:56:18;;;;;;;22.83;18.60;;;8.90;70.80;;;;;;11014077;32;20052;-70
2022/03/15 03:02:20;;;;;;;29.90;20.75;;;8.90;70.70;;;;;;11018060;32;20030;-70
2022/03/15 03:08:25;;;;;;;31.40;22.17;;;8.80;70.90;;;;;;11016828;32;20018;-70
2022/03/15 03:14:27;;;;;;;26.20;20.88;;;8.80;70.90;;;;;;11017845;32;20037;-70
2022/03/15 03:20:30;;;;;;;27.13;22.30;;;8.80;71.10;;;;;;11015111;32;20080;-70
2022/03/15 03:26:37;;;;;;;28.58;23.55;;;8.90;71.70;;;;;;11018033;32;20399;-70
2022/03/15 03:32:41;;;;;;;25.62;19.70;;;8.90;71.90;;;;;;11017118;32;20416;-70
2022/03/15 03:38:43;;;;;;;28.12;23.67;;;8.90;71.60;;;;;;11013338;32;20440;-70
2022/03/15 03:44:45;;;;;;;29.80;23.38;;;8.80;71.40;;;;;;11017290;32;20338;-70
2022/03/15 03:50:49;;;;;;;33.42;25.17;;;8.80;71.60;;;;;;11003734;32;20425;-70
2022/03/15 03:56:51;;;;;;;21.85;18.00;;;8.90;71.60;;;;;;11016630;32;20018;-70
2022/03/15 04:02:57;;;;;;;26.92;22.58;;;8.80;71.40;;;;;;11017118;32;20065;-70
2022/03/15 04:08:59;;;;;;;24.90;21.65;;;8.80;71.40;;;;;;11003264;32;20046;-70
2022/03/15 04:15:03;;;;;;;26.87;21.73;;;8.80;71.80;;;;;;11016641;32;20030;-70
2022/03/15 04:21:05;;;;;;;27.33;22.08;;;8.80;71.70;;;;;;11016626;32;20022;-70
2022/03/15 04:27:07;;;;;;;25.27;21.25;;;8.80;72.00;;;;;;11020855;32;20350;-70
2022/03/15 04:33:09;;;;;;;21.15;18.40;;;8.80;72.30;;;;;;11023644;32;20475;-70
2022/03/15 04:39:12;;;;;;;25.17;20.80;;;8.70;72.70;;;;;;11023278;32;20030;-70
2022/03/15 04:45:16;;;;;;;29.95;19.90;;;8.70;72.70;;;;;;11022635;32;20402;-70
2022/03/15 04:51:18;;;;;;;25.55;20.05;;;8.70;72.70;;;;;;11022878;32;20014;-70
2022/03/15 04:57:20;;;;;;;28.98;24.23;;;8.70;72.70;;;;;;11022559;32;20314;-70
2022/03/15 05:03:22;;;;;;;26.05;22.90;;;8.80;72.70;;;;;;11018059;32;20030;-70
2022/03/15 05:09:24;;;;;;;27.52;23.02;;;8.80;72.40;;;;;;11022204;32;20022;-70
2022/03/15 05:15:27;;;;;;;25.08;20.70;;;8.70;72.40;;;;;;11021838;32;20018;-70
2022/03/15 05:21:30;;;;;;;32.83;24.27;;;8.70;72.30;;;;;;11017417;32;20053;-70
2022/03/15 05:27:33;;;;;;;32.60;27.65;;;8.80;72.00;;;;;;11021525;32;20058;-70
2022/03/15 05:33:36;;;;;;;27.13;21.55;;;8.90;71.90;;;;;;11021169;32;20034;-70
2022/03/15 05:39:38;;;;;;;29.37;24.58;;;9.00;71.70;;;;;;11020971;32;20341;-70
2022/03/15 05:45:40;;;;;;;28.55;23.20;;;9.10;71.80;;;;;;11007232;32;20118;-70
2022/03/15 05:51:42;;;;;;;26.02;21.12;;;9.20;71.60;;;;;;11016393;32;20023;-70
2022/03/15 05:57:44;;;;;;;23.33;18.95;;;9.30;71.40;;;;;;11020465;32;20038;-70
2022/03/15 06:03:46;;;;;;;27.05;20.20;;;9.30;71.10;;;;;;11020172;32;20053;-70
2022/03/15 06:09:49;;;;;;;29.02;25.90;;;9.20;71.30;;;;;;11019837;32;20048;-70
2022/03/15 06:15:51;;;;;;;23.33;18.80;;;9.40;71.40;;;;;;11019658;32;20481;-70
2022/03/15 06:21:53;;;;;;;24.70;18.35;;;9.60;71.10;;;;;;11019306;32;20030;-70
2022/03/15 06:27:57;;;;;;;31.80;22.55;;;9.50;70.90;;;;;;11019070;32;20022;-70
2022/03/15 06:34:00;;;;;;;35.80;20.95;;;9.50;71.20;;;;;;11005491;32;20326;-70
2022/03/15 06:40:06;;;;;;;26.58;23.80;;;9.80;71.40;;;;;;11001820;32;20049;-70
2022/03/15 06:46:08;;;;;;;22.23;19.17;;;10.00;71.10;;;;;;11005168;32;20026;-70
2022/03/15 06:52:11;;;;;;;28.73;24.00;;;10.30;70.90;;;;;;11016829;32;20334;-71
2022/03/15 06:58:14;;;;;;;35.10;27.45;;;10.30;70.80;;;;;;11014063;32;20018;-70
2022/03/15 07:04:18;;;;;;;30.33;23.02;;;10.40;70.80;;;;;;11014974;32;20026;-70
2022/03/15 07:10:21;;;;;;;26.05;20.92;;;10.50;71.00;;;;;;10998264;32;20092;-70
2022/03/15 07:16:24;;;;;;;35.90;22.70;;;10.60;70.80;;;;;;10996850;27;20026;-71
2022/03/15 07:22:27;;;;;;;35.45;29.90;;;10.60;70.90;;;;;;10983055;32;20115;-71
2022/03/15 07:28:29;;;;;;;24.12;20.00;;;10.70;70.80;;;;;;10980493;32;20022;-71
2022/03/15 07:34:33;;;;;;;25.27;21.00;;;10.60;71.20;;;;;;10980470;32;20050;-71
2022/03/15 07:40:35;;;;;;;30.50;20.25;;;10.70;70.90;;;;;;10982982;32;20027;-71
2022/03/15 07:46:40;;;;;;;24.40;19.12;;;10.80;70.90;;;;;;11006309;32;20038;-71
2022/03/15 07:52:42;;;;;;;24.50;21.25;;;11.10;70.60;;;;;;11002209;32;20014;-71
2022/03/15 07:58:45;;;;;;;28.80;19.83;;;11.20;70.40;;;;;;10979966;32;20057;-71
2022/03/15 08:05:33;;;;;;;22.73;17.15;;;11.40;70.10;;;;;;10987047;32;20022;-71
2022/03/15 08:11:37;;;;;;;20.17;16.77;;;11.40;70.10;;;;;;10794294;32;20028;-71
2022/03/15 08:17:45;;;;;;;24.90;20.17;;;11.60;69.70;;;;;;10794220;33;20407;-70
2022/03/15 08:23:47;;;;;;;31.25;24.80;;;11.60;69.70;;;;;;10794325;33;20063;-70
2022/03/15 08:29:49;;;;;;;22.58;17.87;;;11.50;70.00;;;;;;10791404;33;20051;-71
2022/03/15 08:35:52;;;;;;;23.02;18.02;;;11.60;70.00;;;;;;10796270;33;20032;-71
2022/03/15 08:41:54;;;;;;;24.17;18.77;;;11.50;70.20;;;;;;10794869;33;20032;-71
2022/03/15 08:47:57;;;;;;;19.52;16.37;;;11.60;70.20;;;;;;10944967;32;20035;-71
2022/03/15 08:54:00;;;;;;;18.08;15.60;;;11.70;70.10;;;;;;10985400;32;20026;-71
2022/03/15 09:00:06;;;;;;;21.40;16.05;;;11.80;70.00;;;;;;10984265;32;20030;-71
2022/03/15 09:06:09;;;;;;;28.12;23.55;;;11.90;69.90;;;;;;10971383;32;20031;-71
2022/03/15 09:12:11;;;;;;;22.10;17.92;;;12.00;69.50;;;;;;10983824;32;20026;-71
2022/03/15 09:18:14;;;;;;;18.62;14.18;;;11.90;70.10;;;;;;10984263;32;20019;-71
2022/03/15 09:24:17;;;;;;;24.25;17.33;;;11.80;70.30;;;;;;10966226;32;20053;-70
2022/03/15 09:30:19;;;;;;;25.27;17.83;;;11.90;70.50;;;;;;10983971;32;20065;-70
2022/03/15 09:37:01;;;;;;;25.10;20.27;;;12.00;70.30;;;;;;10969307;32;20031;-71
2022/03/15 09:43:06;;;;;;;17.67;13.20;;;12.20;70.00;;;;;;10978196;32;20035;-71
2022/03/15 09:49:10;;;;;;;19.40;15.57;;;12.20;69.70;;;;;;10965869;32;20062;-71
2022/03/15 09:55:13;;;;;;;22.87;17.30;;;12.20;70.00;;;;;;10982279;32;20433;-71
2022/03/15 10:01:18;;;;;;;20.98;15.70;;;12.30;69.80;;;;;;10981871;32;20320;-71
2022/03/15 10:07:21;;;;;;;14.13;11.80;;;12.20;70.00;;;;;;10981713;32;20434;-70
2022/03/15 10:13:24;;;;;;;17.75;14.35;;;12.30;70.00;;;;;;10978377;32;20391;-70
2022/03/15 10:19:29;;;;;;;22.15;16.17;;;12.20;69.80;;;;;;10981034;32;20019;-71
2022/03/15 10:25:33;;;;;;;18.08;12.68;;;12.10;70.00;;;;;;10980637;32;20323;-71
2022/03/15 10:31:35;;;;;;;22.27;18.62;;;12.20;70.20;;;;;;10981064;32;20061;-71
2022/03/15 10:37:41;;;;;;;22.62;16.42;;;12.40;69.90;;;;;;11012887;32;20030;-71
2022/03/15 10:43:44;;;;;;;18.00;14.18;;;12.60;69.60;;;;;;11014293;32;20022;-71
2022/03/15 10:49:50;;;;;;;13.52;10.07;;;12.60;69.10;;;;;;11018034;32;20319;-71
2022/03/15 10:56:24;;;;;;;15.68;10.45;;;12.60;69.30;;;;;;11018206;32;20421;-71
2022/03/15 11:02:35;;;;;;;17.92;14.95;;;12.70;69.40;;;;;;11018025;32;20459;-70
2022/03/15 11:08:38;;;;;;;22.33;18.73;;;12.70;69.20;;;;;;11017609;32;20412;-70
2022/03/15 11:14:57;;;;;;;14.65;11.65;;;12.80;69.30;;;;;;11002769;32;20042;-70
2022/03/15 11:21:02;;;;;;;13.30;11.13;;;12.80;69.50;;;;;;10979545;32;20031;-70
2022/03/15 11:27:07;;;;;;;12.80;11.12;;;12.70;69.30;;;;;;10979540;32;20007;-70
2022/03/15 11:33:11;;;;;;;12.30;9.25;;;12.70;69.50;;;;;;10980226;32;20019;-70
2022/03/15 11:39:13;;;;;;;17.67;15.57;;;12.90;69.20;;;;;;10987350;32;20064;-70
2022/03/15 11:45:23;;;;;;;21.05;15.63;;;13.20;69.00;;;;;;10981722;32;20038;-70
2022/03/15 11:51:42;;;;;;;19.10;10.63;;;13.10;69.00;;;;;;10987068;32;20015;-70
2022/03/15 11:57:51;;;;;;;19.08;10.63;;;13.30;68.70;;;;;;10987443;32;20327;-71
2022/03/15 12:04:06;;;;;;;18.08;10.75;;;13.20;68.50;;;;;;10974222;32;20425;-71
2022/03/15 12:10:08;;;;;;;19.80;15.48;;;13.20;68.50;;;;;;10972685;32;20053;-71
2022/03/15 12:17:01;;;;;;;14.25;11.32;;;13.50;68.30;;;;;;10986331;32;20139;-70
2022/03/15 12:23:05;;;;;;;24.87;21.08;;;13.40;68.20;;;;;;10853476;32;20062;-70
2022/03/15 12:29:16;;;;;;;15.43;11.65;;;13.20;68.40;;;;;;10869261;32;20411;-70
2022/03/15 12:35:26;;;;;;;15.60;11.85;;;13.20;68.80;;;;;;10865362;32;20293;-70
2022/03/15 12:41:28;;;;;;;13.90;11.35;;;13.60;68.20;;;;;;10857568;32;20050;-70
2022/03/15 12:47:32;;;;;;;16.10;11.70;;;13.70;68.10;;;;;;10868722;32;20101;-71
2022/03/15 12:53:43;;;;;;;20.02;16.00;;;13.80;67.70;;;;;;10954915;32;20049;-70
2022/03/15 12:59:51;;;;;;;17.98;15.63;;;13.80;67.70;;;;;;10983186;32;20137;-70
2022/03/15 13:05:55;;;;;;;16.25;12.25;;;13.70;68.10;;;;;;10984610;32;20019;-70
2022/03/15 13:12:26;;;;;;;14.02;11.05;;;13.70;67.90;;;;;;10984453;32;20422;-70
2022/03/15 13:18:31;;;;;;;14.23;11.15;;;13.70;67.80;;;;;;10984194;32;20350;-70
2022/03/15 13:24:37;;;;;;;19.27;12.90;;;13.70;68.10;;;;;;10971032;32;20041;-70
2022/03/15 13:30:44;;;;;;;12.13;8.90;;;13.80;67.90;;;;;;10984343;32;20350;-71
2022/03/15 13:36:50;;;;;;;19.42;14.95;;;14.00;68.00;;;;;;10983974;32;20026;-71
2022/03/15 13:42:53;;;;;;;13.52;11.38;;;14.00;67.70;;;;;;10983688;32;20022;-71
2022/03/15 13:48:56;;;;;;;14.00;11.15;;;14.00;67.50;;;;;;10983383;32;20049;-71
2022/03/15 13:55:01;;;;;;;13.15;10.10;;;13.90;67.70;;;;;;10984513;32;20360;-71
2022/03/15 14:01:08;;;;;;;13.02;9.73;;;14.00;67.60;;;;;;10982250;32;20403;-71
2022/03/15 14:07:22;;;;;;;14.75;11.55;;;14.10;67.50;;;;;;10983115;32;20076;-71
2022/03/15 14:13:25;;;;;;;16.25;13.57;;;14.00;67.40;;;;;;10965653;32;20014;-71
2022/03/15 14:19:27;;;;;;;19.30;13.13;;;13.90;67.80;;;;;;10982518;32;20319;-71
2022/03/15 14:25:34;;;;;;;19.67;14.23;;;14.00;67.80;;;;;;10965101;32;20395;-71
2022/03/15 14:31:40;;;;;;;18.17;13.75;;;14.00;67.70;;;;;;10982058;32;20015;-71
2022/03/15 14:37:42;;;;;;;14.63;10.80;;;14.00;67.80;;;;;;10968577;32;20022;-71
2022/03/15 14:43:45;;;;;;;12.25;9.38;;;14.00;67.70;;;;;;10980815;32;20026;-71
2022/03/15 14:49:49;;;;;;;14.13;8.82;;;13.90;68.00;;;;;;10981287;32;20023;-71
2022/03/15 14:55:54;;;;;;;12.40;8.88;;;14.00;68.10;;;;;;10989558;32;20331;-71
2022/03/15 15:02:00;;;;;;;12.43;9.30;;;14.00;68.00;;;;;;11006727;32;20072;-71
2022/03/15 15:08:02;;;;;;;12.50;9.93;;;14.10;67.90;;;;;;10973037;32;20107;-71
2022/03/15 15:14:07;;;;;;;14.55;9.98;;;13.90;67.90;;;;;;10968597;32;20085;-71
2022/03/15 15:20:12;;;;;;;18.70;10.48;;;13.80;68.30;;;;;;10477985;27;16287319;-71
2022/03/15 15:26:14;;;;;;;17.45;13.40;;;13.80;68.40;;;;;;10977582;32;20022;-71
2022/03/15 15:32:16;;;;;;;11.70;9.20;;;13.90;68.30;;;;;;10980359;32;20031;-72
2022/03/15 15:38:19;;;;;;;12.10;9.40;;;13.80;68.50;;;;;;10980469;32;20031;-72
2022/03/15 15:44:28;;;;;;;10.77;8.25;;;13.80;68.70;;;;;;10980580;32;20054;-72
2022/03/15 15:50:32;;;;;;;;;;;13.70;68.90;;;;;;10980577;32;20421;-71
2022/03/15 15:56:43;;;;;;;14.43;10.88;;;13.80;68.80;;;;;;10978748;32;19918;-71
2022/03/15 16:02:57;;;;;;;10.63;8.65;;;13.80;68.80;;;;;;10979926;32;20022;-71
2022/03/15 16:09:01;;;;;;;17.42;13.70;;;13.80;68.70;;;;;;10966500;32;20026;-71
2022/03/15 16:15:05;;;;;;;14.65;11.25;;;13.70;69.00;;;;;;10979882;32;20023;-71
2022/03/15 16:21:07;;;;;;;21.75;14.07;;;13.70;68.80;;;;;;11015220;32;20022;-71
2022/03/15 16:27:09;;;;;;;14.20;10.10;;;13.70;69.00;;;;;;10993672;32;20323;-71
2022/03/15 16:33:12;;;;;;;15.18;10.00;;;13.70;68.80;;;;;;10987496;32;20066;-72
2022/03/15 16:39:14;;;;;;;10.90;8.73;;;13.80;68.60;;;;;;11001185;32;20023;-72
2022/03/15 16:45:19;;;;;;;17.62;9.75;;;13.70;68.50;;;;;;11009173;32;20030;-72
2022/03/15 16:51:22;;;;;;;7.72;5.40;;;13.70;68.60;;;;;;10985596;32;20058;-71
2022/03/15 16:57:28;;;;;;;12.95;7.32;;;13.60;68.60;;;;;;10985582;32;20050;-69
2022/03/15 17:09:51;;;;;;;7.47;5.28;;;13.40;68.80;;;;;;10986739;32;20050;-71
2022/03/15 17:15:55;;;;;;;9.68;6.40;;;13.40;68.80;;;;;;11023095;32;20018;-71
2022/03/15 17:21:58;;;;;;;10.13;7.07;;;13.30;68.70;;;;;;11022960;32;20030;-70
2022/03/15 17:28:04;;;;;;;8.77;6.80;;;13.30;68.70;;;;;;11022763;32;20088;-71
2022/03/15 17:34:11;;;;;;;10.40;6.65;;;13.20;68.60;;;;;;11022619;32;20018;-71
2022/03/15 17:40:13;;;;;;;7.28;5.32;;;13.20;68.50;;;;;;11022377;32;20397;-71
2022/03/15 17:46:23;;;;;;;18.45;6.28;;;13.10;68.60;;;;;;11022233;32;20015;-71
2022/03/15 17:52:29;;;;;;;13.50;9.57;;;12.90;68.70;;;;;;11021941;32;20018;-71
2022/03/15 17:58:31;;;;;;;14.35;8.45;;;12.80;68.80;;;;;;11021598;32;20076;-71
2022/03/15 18:04:34;;;;;;;9.35;7.47;;;12.80;68.80;;;;;;11021389;32;20045;-71
2022/03/15 18:10:50;;;;;;;12.00;8.13;;;12.80;69.00;;;;;;11020280;32;20019;-71
2022/03/15 18:16:52;;;;;;;10.63;8.88;;;12.70;68.90;;;;;;11003148;32;20053;-71
2022/03/15 18:22:54;;;;;;;10.70;8.07;;;12.80;68.90;;;;;;10982414;32;20429;-71
2022/03/15 18:28:57;;;;;;;11.85;10.10;;;12.70;69.00;;;;;;10977731;32;20022;-71
2022/03/15 18:35:00;;;;;;;17.37;10.05;;;12.80;68.90;;;;;;10982179;32;20045;-71
2022/03/15 18:41:06;;;;;;;11.52;8.38;;;12.80;68.70;;;;;;10982093;32;20054;-71
2022/03/15 18:47:08;;;;;;;18.33;12.73;;;12.80;68.70;;;;;;10981152;32;20037;-69
2022/03/15 18:53:17;;;;;;;15.13;12.98;;;12.80;68.80;;;;;;10981499;32;20073;-71
2022/03/15 18:59:22;;;;;;;14.80;12.27;;;12.80;68.80;;;;;;10981586;32;20045;-71
2022/03/15 19:05:24;;;;;;;16.60;14.02;;;12.80;68.70;;;;;;10981173;32;20019;-71
2022/03/15 19:11:27;;;;;;;13.65;10.80;;;12.70;68.80;;;;;;10964016;32;20050;-71
2022/03/15 19:17:30;;;;;;;16.67;14.00;;;12.70;69.00;;;;;;10961764;32;20327;-71
2022/03/15 19:23:55;;;;;;;22.20;13.65;;;12.60;68.90;;;;;;10987211;32;20406;-70
2022/03/15 19:30:05;;;;;;;19.67;13.13;;;12.60;69.10;;;;;;10979327;32;20057;-71
2022/03/15 19:36:08;;;;;;;15.15;10.38;;;12.50;69.20;;;;;;10978515;32;20014;-71
2022/03/15 19:42:11;;;;;;;20.00;13.10;;;12.50;69.20;;;;;;10961368;32;20049;-71
2022/03/15 19:48:15;;;;;;;15.13;12.63;;;12.50;69.20;;;;;;10979150;32;20292;-71
2022/03/15 19:54:22;;;;;;;17.75;12.00;;;12.50;69.10;;;;;;10966270;32;20019;-71
2022/03/15 20:00:24;;;;;;;18.42;12.15;;;12.50;69.40;;;;;;10986514;32;20053;-71
2022/03/15 20:06:30;;;;;;;20.45;15.80;;;12.50;69.30;;;;;;10995753;32;20026;-71
2022/03/15 20:12:34;;;;;;;17.10;14.55;;;12.50;69.40;;;;;;11019925;32;20018;-70
2022/03/15 20:18:37;;;;;;;16.75;12.75;;;12.60;69.50;;;;;;11010172;32;20022;-71
2022/03/15 20:24:40;;;;;;;15.95;12.65;;;12.50;69.30;;;;;;11022257;32;20022;-71
2022/03/15 20:30:43;;;;;;;16.83;12.57;;;12.50;69.50;;;;;;11023332;32;20025;-71
2022/03/15 20:36:49;;;;;;;14.70;11.18;;;12.40;69.50;;;;;;11023150;32;20056;-71
2022/03/15 20:50:10;;;;;;;15.13;10.73;;;12.40;69.70;;;;;;11022745;32;20022;-71
2022/03/15 20:56:13;;;;;;;14.50;11.15;;;12.30;69.70;;;;;;11022225;32;20053;-71
2022/03/15 21:02:16;;;;;;;23.92;16.42;;;12.20;69.80;;;;;;11021826;32;20034;-71
2022/03/15 21:08:37;;;;;;;23.00;17.25;;;12.30;69.90;;;;;;11021398;32;20022;-71
2022/03/15 21:15:00;;;;;;;25.08;16.15;;;12.30;69.90;;;;;;11022398;32;20342;-71
2022/03/15 21:21:03;;;;;;;20.95;15.82;;;12.30;69.80;;;;;;11021172;32;20062;-71
2022/03/15 21:27:05;;;;;;;26.00;13.93;;;12.20;70.00;;;;;;11020862;32;20045;-71
2022/03/15 21:33:09;;;;;;;18.35;14.45;;;12.20;70.00;;;;;;11016486;32;20022;-68
2022/03/15 21:39:15;;;;;;;20.90;16.23;;;12.20;70.10;;;;;;10983737;32;20478;-71
2022/03/15 21:52:53;;;;;;;15.70;12.23;;;12.10;70.30;;;;;;10981899;32;20050;-71
2022/03/15 21:58:58;;;;;;;15.45;12.32;;;12.00;70.30;;;;;;10968240;32;20026;-70
2022/03/15 22:05:00;;;;;;;19.40;15.23;;;11.90;70.40;;;;;;10981409;32;20057;-71
2022/03/15 22:11:03;;;;;;;19.85;16.27;;;11.80;70.50;;;;;;10981475;32;20061;-70
2022/03/15 22:17:06;;;;;;;16.45;12.50;;;11.80;70.70;;;;;;10980983;32;20030;-70
2022/03/15 22:23:08;;;;;;;17.05;14.50;;;11.70;70.80;;;;;;10976865;32;20057;-70
2022/03/15 22:29:12;;;;;;;19.37;15.02;;;11.70;71.00;;;;;;10981329;32;20285;-71
2022/03/15 23:26:04;;;;;;;24.17;19.17;;;11.50;71.50;;;;;;11019091;32;20443;-71
2022/03/15 23:32:07;;;;;;;21.80;18.12;;;11.40;71.60;;;;;;11018687;32;20023;-71
2022/03/15 23:38:09;;;;;;;21.73;17.20;;;11.40;71.70;;;;;;11018966;32;20073;-71
2022/03/15 23:44:11;;;;;;;18.08;15.10;;;11.30;71.60;;;;;;11018612;32;20026;-71
2022/03/15 23:50:14;;;;;;;17.62;13.85;;;11.30;71.60;;;;;;11014125;32;20041;-72
2022/03/15 23:56:18;;;;;;;20.92;15.43;;;11.20;71.70;;;;;;11014237;32;20049;-72
